createdAt,value
2023-05-19T00:00:24.814Z,13.33
2023-05-19T00:02:01.974Z,11.71
2023-05-19T00:03:31.758Z,12.53
2023-05-19T00:05:08.261Z,11.56
2023-05-19T00:06:49.203Z,11.01
2023-05-19T00:08:22.968Z,11.74
2023-05-19T00:09:58.635Z,12.94
2023-05-19T00:11:39.732Z,11.89
2023-05-19T00:13:12.933Z,11.45
2023-05-19T00:14:37.162Z,11.13
2023-05-19T00:16:30.740Z,10.66
2023-05-19T00:18:00.231Z,11.44
2023-05-19T00:19:26.747Z,10.97
2023-05-19T00:21:15.215Z,10.31
2023-05-19T00:22:51.295Z,9.96
2023-05-19T00:24:27.006Z,9.82
2023-05-19T00:26:00.784Z,9.19
2023-05-19T00:27:34.579Z,9.38
2023-05-19T00:29:19.963Z,9.89
2023-05-19T00:30:41.828Z,10.77
2023-05-19T00:32:16.656Z,11.39
2023-05-19T00:33:58.160Z,10.50
2023-05-19T00:35:35.002Z,11.48
2023-05-19T00:37:10.768Z,14.74
2023-05-19T00:38:44.205Z,15.16
2023-05-19T00:40:06.566Z,17.28
2023-05-19T00:41:30.466Z,14.51
2023-05-19T00:43:21.289Z,11.65
2023-05-19T00:44:59.361Z,11.20
2023-05-19T00:46:23.669Z,12.96
2023-05-19T00:47:45.554Z,10.38
2023-05-19T00:49:18.887Z,10.02
2023-05-19T00:51:03.996Z,9.00
2023-05-19T00:52:40.101Z,9.15
2023-05-19T00:54:20.953Z,9.08
2023-05-19T00:55:56.548Z,8.89
2023-05-19T00:57:32.564Z,9.05
2023-05-19T00:59:19.884Z,8.82
2023-05-19T01:01:13.751Z,9.04
2023-05-19T01:02:47.639Z,14.27
2023-05-19T01:04:21.813Z,27.94
2023-05-19T01:06:06.762Z,20.51
2023-05-19T01:08:00.351Z,8.75
2023-05-19T01:09:41.059Z,8.59
2023-05-19T01:11:31.391Z,8.37
2023-05-19T01:12:53.227Z,8.71
2023-05-19T01:14:27.023Z,8.56
2023-05-19T01:16:13.167Z,9.14
2023-05-19T01:17:37.410Z,8.79
2023-05-19T01:19:19.484Z,9.80
2023-05-19T01:20:58.122Z,10.41
2023-05-19T01:22:43.806Z,8.69
2023-05-19T01:24:27.273Z,8.21
2023-05-19T01:25:58.271Z,8.00
2023-05-19T01:27:43.579Z,8.15
2023-05-19T01:29:18.755Z,7.78
2023-05-19T01:30:52.775Z,8.22
2023-05-19T01:32:26.216Z,7.77
2023-05-19T01:34:04.595Z,8.90
2023-05-19T01:35:38.015Z,9.01
2023-05-19T01:37:26.853Z,8.43
2023-05-19T01:39:11.677Z,9.15
2023-05-19T01:40:57.001Z,8.61
2023-05-19T01:42:41.858Z,8.35
2023-05-19T01:44:23.888Z,8.54
2023-05-19T01:45:47.918Z,8.81
2023-05-19T01:47:32.880Z,8.46
2023-05-19T01:49:06.723Z,9.04
2023-05-19T01:50:42.481Z,8.25
2023-05-19T01:52:23.082Z,8.39
2023-05-19T01:53:52.376Z,8.77
2023-05-19T01:55:28.167Z,9.39
2023-05-19T01:57:01.742Z,9.14
2023-05-19T01:58:37.502Z,8.91
2023-05-19T02:00:23.335Z,8.66
2023-05-19T02:01:47.736Z,8.46
2023-05-19T02:03:22.069Z,8.49
2023-05-19T02:05:07.179Z,8.78
2023-05-19T02:06:40.839Z,8.81
2023-05-19T02:08:19.589Z,9.61
2023-05-19T02:10:04.757Z,9.02
2023-05-19T02:11:33.917Z,8.53
2023-05-19T02:13:18.750Z,7.87
2023-05-19T02:14:42.805Z,8.38
2023-05-19T02:16:18.420Z,7.85
2023-05-19T02:18:03.614Z,8.57
2023-05-19T02:19:40.173Z,8.34
2023-05-19T02:21:13.273Z,7.62
2023-05-19T02:22:47.025Z,8.07
2023-05-19T02:24:32.015Z,7.40
2023-05-19T02:26:17.497Z,7.52
2023-05-19T02:27:49.001Z,7.25
2023-05-19T02:29:41.595Z,7.61
2023-05-19T02:31:10.820Z,7.93
2023-05-19T02:32:58.375Z,7.33
2023-05-19T02:34:33.984Z,7.34
2023-05-19T02:36:10.189Z,7.72
2023-05-19T02:37:44.163Z,7.36
2023-05-19T02:39:15.415Z,7.70
2023-05-19T02:40:51.377Z,7.36
2023-05-19T02:42:17.734Z,7.54
2023-05-19T02:44:00.335Z,7.60
2023-05-19T02:45:33.820Z,7.57
2023-05-19T02:47:14.809Z,7.95
2023-05-19T02:48:55.646Z,8.45
2023-05-19T02:50:24.221Z,9.79
2023-05-19T02:52:02.749Z,9.20
2023-05-19T02:53:47.752Z,8.38
2023-05-19T02:55:21.281Z,7.93
2023-05-19T02:56:54.666Z,8.37
2023-05-19T02:58:27.668Z,8.52
2023-05-19T03:00:08.809Z,7.98
2023-05-19T03:01:49.599Z,8.29
2023-05-19T03:03:16.159Z,8.26
2023-05-19T03:04:57.872Z,7.72
2023-05-19T03:06:38.612Z,8.15
2023-05-19T03:08:12.104Z,7.66
2023-05-19T03:09:45.637Z,8.45
2023-05-19T03:11:19.153Z,8.37
2023-05-19T03:12:52.923Z,8.62
2023-05-19T03:14:17.296Z,8.15
2023-05-19T03:15:53.089Z,7.53
2023-05-19T03:17:38.294Z,8.14
2023-05-19T03:19:07.365Z,8.09
2023-05-19T03:20:54.217Z,8.00
2023-05-19T03:22:21.206Z,7.42
2023-05-19T03:24:07.140Z,7.64
2023-05-19T03:25:43.210Z,7.12
2023-05-19T03:27:07.192Z,7.69
2023-05-19T03:28:48.037Z,7.83
2023-05-19T03:30:09.862Z,8.05
2023-05-19T03:31:42.829Z,7.68
2023-05-19T03:33:17.098Z,7.85
2023-05-19T03:34:41.098Z,7.48
2023-05-19T03:36:14.084Z,7.59
2023-05-19T03:37:49.789Z,8.06
2023-05-19T03:39:23.248Z,8.03
2023-05-19T03:41:05.137Z,7.85
2023-05-19T03:42:41.386Z,8.35
2023-05-19T03:44:05.130Z,8.47
2023-05-19T03:45:50.407Z,8.92
2023-05-19T03:47:49.934Z,8.26
2023-05-19T03:49:54.004Z,8.16
2023-05-19T03:51:48.285Z,8.00
2023-05-19T03:53:26.509Z,8.85
2023-05-19T03:55:07.599Z,8.12
2023-05-19T03:56:41.030Z,8.32
2023-05-19T03:58:17.072Z,7.79
2023-05-19T03:59:53.188Z,7.78
2023-05-19T04:01:37.977Z,7.48
2023-05-19T04:03:23.420Z,7.66
2023-05-19T04:04:57.125Z,7.91
2023-05-19T04:06:43.929Z,7.73
2023-05-19T04:08:05.587Z,7.65
2023-05-19T04:09:39.172Z,7.91
2023-05-19T04:11:15.222Z,8.25
2023-05-19T04:12:48.929Z,8.04
2023-05-19T04:14:25.264Z,7.36
2023-05-19T04:15:58.716Z,7.14
2023-05-19T04:17:34.390Z,7.84
2023-05-19T04:19:10.541Z,8.15
2023-05-19T04:20:36.796Z,8.15
2023-05-19T04:22:03.000Z,8.67
2023-05-19T04:23:48.197Z,7.77
2023-05-19T04:25:23.825Z,7.67
2023-05-19T04:27:01.218Z,7.60
2023-05-19T04:28:27.697Z,7.67
2023-05-19T04:30:01.011Z,7.55
2023-05-19T04:31:33.444Z,7.77
2023-05-19T04:32:55.282Z,7.70
2023-05-19T04:34:40.616Z,7.57
2023-05-19T04:36:23.476Z,7.55
2023-05-19T04:38:07.367Z,6.83
2023-05-19T04:39:42.967Z,7.10
2023-05-19T04:41:13.918Z,6.95
2023-05-19T04:42:53.028Z,7.05
2023-05-19T04:44:38.360Z,7.12
2023-05-19T04:46:00.228Z,6.72
2023-05-19T04:47:21.876Z,6.91
2023-05-19T04:48:48.234Z,6.36
2023-05-19T04:50:28.722Z,6.41
2023-05-19T04:51:55.552Z,6.29
2023-05-19T04:53:41.413Z,6.18
2023-05-19T04:55:27.793Z,6.55
2023-05-19T04:56:52.301Z,6.46
2023-05-19T04:58:26.141Z,6.53
2023-05-19T05:00:00.035Z,6.26
2023-05-19T05:01:34.688Z,6.31
2023-05-19T05:03:01.311Z,5.92
2023-05-19T05:04:47.869Z,5.63
2023-05-19T05:06:29.403Z,5.62
2023-05-19T05:08:18.190Z,5.37
2023-05-19T05:09:59.327Z,5.09
2023-05-19T05:11:32.881Z,4.81
2023-05-19T05:12:57.849Z,4.98
2023-05-19T05:14:31.537Z,5.11
2023-05-19T05:16:19.346Z,4.92
2023-05-19T05:18:13.103Z,4.67
2023-05-19T05:19:54.987Z,4.10
2023-05-19T05:21:31.105Z,4.45
2023-05-19T05:23:04.689Z,4.41
2023-05-19T05:24:38.861Z,4.43
2023-05-19T05:26:24.685Z,4.53
2023-05-19T05:28:08.657Z,4.88
2023-05-19T05:29:54.766Z,4.90
2023-05-19T05:31:19.469Z,4.41
2023-05-19T05:32:53.093Z,4.57
2023-05-19T05:34:29.520Z,4.80
2023-05-19T05:36:10.609Z,4.50
2023-05-19T05:37:43.795Z,4.87
2023-05-19T05:39:28.733Z,4.27
2023-05-19T05:41:02.548Z,4.49
2023-05-19T05:42:28.876Z,4.81
2023-05-19T05:44:05.538Z,4.02
2023-05-19T05:45:39.337Z,4.00
2023-05-19T05:47:15.289Z,4.33
2023-05-19T05:48:41.905Z,4.86
2023-05-19T05:50:17.584Z,4.29
2023-05-19T05:51:42.988Z,4.34
2023-05-19T05:53:12.623Z,4.78
2023-05-19T05:54:38.412Z,4.29
2023-05-19T05:56:23.830Z,5.11
2023-05-19T05:58:20.322Z,4.79
2023-05-19T06:00:08.308Z,4.44
2023-05-19T06:01:46.292Z,4.23
2023-05-19T06:03:22.454Z,5.21
2023-05-19T06:04:56.992Z,4.81
2023-05-19T06:06:37.458Z,4.87
2023-05-19T06:08:01.705Z,5.09
2023-05-19T06:09:32.735Z,5.39
2023-05-19T06:11:07.940Z,4.93
2023-05-19T06:12:44.333Z,5.11
2023-05-19T06:14:24.847Z,4.52
2023-05-19T06:16:16.762Z,4.27
2023-05-19T06:18:12.946Z,4.98
2023-05-19T06:19:47.155Z,4.80
2023-05-19T06:21:32.241Z,5.69
2023-05-19T06:23:20.340Z,5.08
2023-05-19T06:24:46.636Z,5.16
2023-05-19T06:26:27.239Z,5.63
2023-05-19T06:28:00.900Z,4.86
2023-05-19T06:29:34.479Z,5.10
2023-05-19T06:31:01.071Z,5.02
2023-05-19T06:32:46.406Z,5.06
2023-05-19T06:34:26.775Z,5.48
2023-05-19T06:36:12.405Z,5.13
2023-05-19T06:37:58.450Z,6.00
2023-05-19T06:39:31.400Z,5.71
2023-05-19T06:41:06.890Z,5.29
2023-05-19T06:42:39.386Z,5.96
2023-05-19T06:44:36.994Z,5.47
2023-05-19T06:46:17.884Z,6.26
2023-05-19T06:47:56.574Z,5.97
2023-05-19T06:49:30.284Z,5.60
2023-05-19T06:51:15.419Z,5.93
2023-05-19T06:53:00.843Z,5.11
2023-05-19T06:54:33.804Z,5.15
2023-05-19T06:56:19.648Z,6.04
2023-05-19T06:57:49.401Z,6.36
2023-05-19T06:59:25.705Z,5.93
2023-05-19T07:01:02.412Z,5.40
2023-05-19T07:02:51.255Z,5.38
2023-05-19T07:04:38.589Z,5.57
2023-05-19T07:06:23.206Z,5.01
2023-05-19T07:08:09.700Z,5.06
2023-05-19T07:09:41.046Z,5.07
2023-05-19T07:11:02.951Z,5.16
2023-05-19T07:12:32.546Z,5.32
2023-05-19T07:14:10.790Z,5.26
2023-05-19T07:15:55.764Z,5.44
2023-05-19T07:17:31.813Z,5.05
2023-05-19T07:19:03.461Z,4.67
2023-05-19T07:20:39.574Z,4.63
2023-05-19T07:22:24.669Z,4.44
2023-05-19T07:24:06.306Z,4.50
2023-05-19T07:25:42.700Z,4.54
2023-05-19T07:27:16.442Z,4.50
2023-05-19T07:28:41.735Z,4.60
2023-05-19T07:30:15.241Z,4.26
2023-05-19T07:32:00.437Z,4.35
2023-05-19T07:33:36.316Z,4.27
2023-05-19T07:34:58.621Z,4.08
2023-05-19T07:36:34.149Z,4.15
2023-05-19T07:37:58.411Z,4.03
2023-05-19T07:39:32.333Z,3.77
2023-05-19T07:41:17.047Z,3.83
2023-05-19T07:42:45.947Z,4.07
2023-05-19T07:44:17.638Z,4.03
2023-05-19T07:46:03.070Z,3.60
2023-05-19T07:47:43.630Z,4.29
2023-05-19T07:49:17.457Z,3.78
2023-05-19T07:50:46.780Z,3.88
2023-05-19T07:52:10.876Z,4.14
2023-05-19T07:53:55.936Z,3.70
2023-05-19T07:55:41.127Z,4.11
2023-05-19T07:57:28.867Z,4.24
2023-05-19T07:59:02.422Z,4.42
2023-05-19T08:00:47.352Z,4.29
2023-05-19T08:02:11.515Z,4.24
2023-05-19T08:03:52.275Z,4.38
2023-05-19T08:05:30.632Z,4.13
2023-05-19T08:06:57.177Z,4.16
2023-05-19T08:08:37.600Z,3.84
2023-05-19T08:10:19.819Z,4.11
2023-05-19T08:12:04.904Z,4.32
2023-05-19T08:13:40.639Z,4.47
2023-05-19T08:15:31.302Z,3.73
2023-05-19T08:17:13.644Z,4.35
2023-05-19T08:18:46.950Z,4.52
2023-05-19T08:20:22.948Z,3.92
2023-05-19T08:22:09.049Z,4.19
2023-05-19T08:23:32.892Z,4.30
2023-05-19T08:25:09.739Z,4.63
2023-05-19T08:26:41.461Z,4.28
2023-05-19T08:28:10.726Z,4.30
2023-05-19T08:29:56.066Z,4.07
2023-05-19T08:31:32.817Z,4.31
2023-05-19T08:33:15.435Z,4.39
2023-05-19T08:34:51.644Z,4.41
2023-05-19T08:36:36.690Z,4.95
2023-05-19T08:38:09.894Z,4.88
2023-05-19T08:39:38.627Z,5.00
2023-05-19T08:41:14.890Z,4.40
2023-05-19T08:42:43.712Z,4.70
2023-05-19T08:44:05.349Z,4.59
2023-05-19T08:45:29.781Z,4.13
2023-05-19T08:47:06.780Z,4.70
2023-05-19T08:48:40.159Z,4.81
2023-05-19T08:50:25.470Z,4.98
2023-05-19T08:51:46.912Z,4.85
2023-05-19T08:53:36.105Z,5.35
2023-05-19T08:55:00.877Z,4.80
2023-05-19T08:56:27.423Z,5.08
2023-05-19T08:57:53.927Z,4.64
2023-05-19T08:59:27.456Z,4.81
2023-05-19T09:00:49.402Z,4.59
2023-05-19T09:02:22.792Z,4.80
2023-05-19T09:03:59.084Z,5.08
2023-05-19T09:05:34.795Z,5.36
2023-05-19T09:07:12.759Z,5.26
2023-05-19T09:08:47.072Z,4.97
2023-05-19T09:10:09.125Z,5.13
2023-05-19T09:11:42.522Z,5.47
2023-05-19T09:15:20.972Z,5.48
2023-05-19T09:16:42.933Z,4.99
2023-05-19T09:18:04.442Z,5.62
2023-05-19T09:19:26.177Z,5.17
2023-05-19T09:21:07.248Z,4.87
2023-05-19T09:22:43.275Z,5.67
2023-05-19T09:24:05.363Z,5.30
2023-05-19T09:25:27.312Z,5.67
2023-05-19T09:27:00.229Z,5.29
2023-05-19T09:28:31.644Z,5.58
2023-05-19T09:29:53.905Z,5.79
2023-05-19T09:31:29.819Z,5.63
2023-05-19T09:33:01.487Z,5.75
2023-05-19T09:34:26.838Z,5.63
2023-05-19T09:36:00.157Z,5.06
2023-05-19T09:37:22.260Z,5.56
2023-05-19T09:38:58.357Z,5.37
2023-05-19T09:40:42.774Z,5.52
2023-05-19T09:42:16.572Z,5.49
2023-05-19T09:43:50.183Z,5.98
2023-05-19T09:45:31.488Z,6.03
2023-05-19T09:47:04.988Z,6.25
2023-05-19T09:48:40.750Z,6.17
2023-05-19T09:50:09.923Z,7.56
2023-05-19T09:51:34.273Z,6.90
2023-05-19T09:53:07.550Z,6.59
2023-05-19T09:54:47.950Z,7.16
2023-05-19T09:56:29.031Z,6.05
2023-05-19T09:57:53.444Z,5.79
2023-05-19T09:59:22.434Z,6.91
2023-05-19T10:00:58.235Z,7.28
2023-05-19T10:02:33.620Z,7.91
2023-05-19T10:04:03.758Z,6.59
2023-05-19T10:05:29.198Z,6.10
2023-05-19T10:07:06.063Z,5.60
2023-05-19T10:08:30.267Z,6.37
2023-05-19T10:10:04.157Z,6.69
2023-05-19T10:11:33.112Z,6.57
2023-05-19T10:12:57.411Z,6.80
2023-05-19T10:14:29.092Z,6.87
2023-05-19T10:16:02.707Z,6.75
2023-05-19T10:17:25.001Z,6.85
2023-05-19T10:18:57.145Z,7.71
2023-05-19T10:20:31.038Z,7.19
2023-05-19T10:21:55.454Z,7.34
2023-05-19T10:23:28.820Z,7.34
2023-05-19T10:25:14.762Z,7.04
2023-05-19T10:26:38.792Z,7.12
2023-05-19T10:28:13.990Z,7.13
2023-05-19T10:29:45.438Z,7.69
2023-05-19T10:31:30.602Z,8.00
2023-05-19T10:33:08.345Z,8.18
2023-05-19T10:34:37.340Z,8.60
2023-05-19T10:35:59.398Z,8.09
2023-05-19T10:37:35.923Z,8.01
2023-05-19T10:39:10.427Z,8.04
2023-05-19T10:40:39.752Z,7.56
2023-05-19T10:42:21.042Z,7.24
2023-05-19T10:43:54.983Z,7.97
2023-05-19T10:45:35.816Z,7.72
2023-05-19T10:47:14.833Z,7.50
2023-05-19T10:48:50.334Z,7.66
2023-05-19T10:50:12.024Z,7.42
2023-05-19T10:51:45.559Z,7.91
2023-05-19T10:53:29.760Z,8.07
2023-05-19T10:54:56.295Z,7.63
2023-05-19T10:56:42.112Z,7.61
2023-05-19T10:58:13.696Z,8.52
2023-05-19T10:59:47.527Z,8.30
2023-05-19T11:01:22.181Z,8.70
2023-05-19T11:02:56.126Z,9.28
2023-05-19T11:04:20.373Z,8.49
2023-05-19T11:05:53.998Z,8.78
2023-05-19T11:07:29.752Z,8.27
2023-05-19T11:09:22.556Z,8.87
2023-05-19T11:11:11.848Z,8.81
2023-05-19T11:12:48.441Z,8.53
2023-05-19T11:14:26.993Z,9.09
2023-05-19T11:16:02.753Z,9.29
2023-05-19T11:17:43.806Z,9.09
2023-05-19T11:19:08.087Z,8.62
2023-05-19T11:20:32.006Z,9.87
2023-05-19T11:21:57.516Z,8.85
2023-05-19T11:23:34.763Z,9.21
2023-05-19T11:24:59.761Z,8.88
2023-05-19T11:26:43.894Z,9.54
2023-05-19T11:28:29.234Z,9.68
2023-05-19T11:30:14.592Z,8.69
2023-05-19T11:31:48.582Z,9.03
2023-05-19T11:33:09.944Z,9.71
2023-05-19T11:34:47.464Z,8.89
2023-05-19T11:36:09.306Z,9.36
2023-05-19T11:37:31.052Z,8.85
2023-05-19T11:39:13.941Z,9.25
2023-05-19T11:40:47.198Z,8.59
2023-05-19T11:42:28.434Z,9.80
2023-05-19T11:43:54.897Z,9.64
2023-05-19T11:45:36.345Z,8.98
2023-05-19T11:47:15.981Z,9.20
2023-05-19T11:48:40.241Z,9.37
2023-05-19T11:50:15.562Z,9.36
2023-05-19T11:51:48.585Z,8.63
2023-05-19T11:53:20.044Z,8.89
2023-05-19T11:54:44.106Z,8.92
2023-05-19T11:56:17.694Z,8.60
2023-05-19T11:58:02.733Z,8.95
2023-05-19T11:59:49.556Z,9.18
2023-05-19T12:01:23.013Z,9.43
2023-05-19T12:02:52.497Z,9.20
2023-05-19T12:04:26.027Z,9.38
2023-05-19T12:05:52.734Z,9.25
2023-05-19T12:07:25.986Z,8.97
2023-05-19T12:09:02.121Z,8.18
2023-05-19T12:10:24.138Z,9.21
2023-05-19T12:11:45.601Z,8.93
2023-05-19T12:13:11.047Z,9.70
2023-05-19T12:14:44.740Z,9.96
2023-05-19T12:16:18.224Z,9.95
2023-05-19T12:17:42.291Z,10.34
2023-05-19T12:19:04.348Z,10.01
2023-05-19T12:20:28.071Z,9.95
2023-05-19T12:21:52.459Z,10.16
2023-05-19T12:23:25.946Z,10.07
2023-05-19T12:24:58.054Z,9.71
2023-05-19T12:26:22.284Z,9.66
2023-05-19T12:27:56.177Z,9.50
2023-05-19T12:29:32.857Z,10.41
2023-05-19T12:31:02.381Z,10.61
2023-05-19T12:32:24.493Z,10.57
2023-05-19T12:33:48.515Z,12.13
2023-05-19T12:35:29.176Z,10.52
2023-05-19T12:37:02.945Z,11.82
2023-05-19T12:38:49.285Z,10.58
2023-05-19T12:40:15.759Z,9.87
2023-05-19T12:41:49.464Z,11.00
2023-05-19T12:43:23.094Z,10.69
2023-05-19T12:44:46.806Z,10.60
2023-05-19T12:46:32.206Z,10.44
2023-05-19T12:48:18.220Z,10.38
2023-05-19T12:50:01.704Z,10.03
2023-05-19T12:51:33.253Z,9.75
2023-05-19T12:53:07.160Z,10.58
2023-05-19T12:54:31.537Z,10.14
2023-05-19T12:56:14.065Z,10.08
2023-05-19T12:57:48.576Z,10.65
2023-05-19T12:59:37.105Z,10.29
2023-05-19T13:01:04.682Z,10.86
2023-05-19T13:02:26.562Z,11.68
2023-05-19T13:03:49.054Z,11.91
2023-05-19T13:05:29.818Z,11.34
2023-05-19T13:07:03.542Z,11.49
2023-05-19T13:08:36.957Z,11.69
2023-05-19T13:10:21.831Z,11.12
2023-05-19T13:11:43.661Z,11.62
2023-05-19T13:13:07.968Z,11.44
2023-05-19T13:14:43.551Z,11.71
2023-05-19T13:16:08.075Z,11.83
2023-05-19T13:17:37.326Z,11.32
2023-05-19T13:19:02.005Z,11.26
2023-05-19T13:20:24.303Z,11.78
2023-05-19T13:21:47.758Z,11.71
2023-05-19T13:23:32.761Z,10.62
2023-05-19T13:25:02.190Z,11.09
2023-05-19T13:26:24.263Z,11.37
2023-05-19T13:27:59.370Z,11.51
2023-05-19T13:29:29.194Z,11.02
2023-05-19T13:31:02.765Z,12.25
2023-05-19T13:32:38.585Z,11.64
2023-05-19T13:34:05.016Z,11.81
2023-05-19T13:35:38.979Z,11.56
2023-05-19T13:37:14.033Z,11.35
2023-05-19T13:38:43.432Z,11.48
2023-05-19T13:40:28.638Z,11.98
2023-05-19T13:42:02.222Z,12.11
2023-05-19T13:43:38.268Z,13.69
2023-05-19T13:45:00.290Z,13.04
2023-05-19T13:46:44.756Z,13.44
2023-05-19T13:48:21.793Z,12.64
2023-05-19T13:49:57.916Z,13.34
2023-05-19T13:51:31.393Z,13.40
2023-05-19T13:53:12.172Z,13.40
2023-05-19T13:54:38.926Z,12.98
2023-05-19T13:56:12.757Z,16.73
2023-05-19T13:57:50.026Z,14.09
2023-05-19T14:00:00.274Z,14.07
2023-05-19T14:01:34.315Z,13.81
2023-05-19T14:03:20.003Z,14.74
2023-05-19T14:04:55.926Z,14.03
2023-05-19T14:06:25.199Z,12.31
2023-05-19T14:08:11.564Z,13.07
2023-05-19T14:09:52.591Z,12.98
2023-05-19T14:11:26.217Z,13.05
2023-05-19T14:13:29.038Z,13.13
2023-05-19T14:15:00.691Z,13.22
2023-05-19T14:16:23.025Z,13.17
2023-05-19T14:18:08.822Z,13.22
2023-05-19T14:19:42.296Z,13.61
2023-05-19T14:21:06.482Z,13.94
2023-05-19T14:22:28.077Z,13.26
2023-05-19T14:24:10.797Z,13.19
2023-05-19T14:25:44.820Z,13.92
2023-05-19T14:27:16.929Z,15.11
2023-05-19T14:28:58.295Z,14.36
2023-05-19T14:30:34.313Z,13.43
2023-05-19T14:32:17.275Z,13.29
2023-05-19T14:33:41.101Z,13.24
2023-05-19T14:35:14.585Z,12.99
2023-05-19T14:36:50.539Z,14.02
2023-05-19T14:38:19.692Z,14.66
2023-05-19T14:39:53.250Z,13.90
2023-05-19T14:41:29.159Z,13.80
2023-05-19T14:43:03.101Z,13.79
2023-05-19T14:44:25.100Z,14.52
2023-05-19T14:45:46.974Z,14.52
2023-05-19T14:47:18.507Z,15.27
2023-05-19T14:48:42.685Z,14.14
2023-05-19T14:50:24.197Z,13.93
2023-05-19T14:51:48.449Z,14.09
2023-05-19T14:53:29.433Z,14.44
2023-05-19T14:54:52.056Z,13.87
2023-05-19T14:56:16.322Z,14.48
2023-05-19T14:57:52.945Z,14.01
2023-05-19T14:59:25.003Z,13.80
2023-05-19T15:00:51.717Z,13.85
2023-05-19T15:02:36.513Z,14.15
2023-05-19T15:03:58.440Z,14.81
2023-05-19T15:05:22.811Z,14.36
2023-05-19T15:08:37.488Z,14.35
2023-05-19T15:09:59.742Z,14.37
2023-05-19T15:11:26.201Z,14.49
2023-05-19T15:12:51.046Z,14.45
2023-05-19T15:14:24.344Z,14.69
2023-05-19T15:16:08.217Z,14.19
2023-05-19T15:17:51.288Z,14.64
2023-05-19T15:19:24.913Z,15.19
2023-05-19T15:20:58.646Z,15.07
2023-05-19T15:22:31.949Z,14.66
2023-05-19T15:23:53.970Z,15.07
2023-05-19T15:25:18.202Z,15.08
2023-05-19T15:26:52.444Z,15.51
2023-05-19T15:28:16.719Z,15.91
2023-05-19T15:30:01.857Z,14.39
2023-05-19T15:31:38.142Z,13.33
2023-05-19T15:33:11.890Z,14.67
2023-05-19T15:34:35.865Z,14.52
2023-05-19T15:36:21.292Z,14.22
2023-05-19T15:37:57.615Z,15.45
2023-05-19T15:39:26.751Z,14.90
2023-05-19T15:41:02.350Z,14.41
2023-05-19T15:42:31.261Z,14.11
2023-05-19T15:44:07.413Z,13.40
2023-05-19T15:45:33.585Z,13.26
2023-05-19T15:47:07.020Z,14.00
2023-05-19T15:48:36.236Z,14.41
2023-05-19T15:50:12.914Z,14.25
2023-05-19T15:51:35.130Z,14.13
2023-05-19T15:53:15.425Z,14.11
2023-05-19T15:54:48.941Z,16.65
2023-05-19T15:56:22.554Z,16.56
2023-05-19T15:58:15.906Z,14.10
2023-05-19T15:59:37.422Z,13.50
2023-05-19T16:01:02.075Z,13.84
2023-05-19T16:02:31.189Z,15.07
2023-05-19T16:04:07.430Z,24.03
2023-05-19T16:05:42.892Z,18.48
2023-05-19T16:07:16.927Z,14.01
2023-05-19T16:09:03.502Z,13.80
2023-05-19T16:10:30.184Z,13.46
2023-05-19T16:11:56.725Z,13.45
2023-05-19T16:13:44.550Z,13.21
2023-05-19T16:15:25.832Z,14.29
2023-05-19T16:16:49.805Z,13.89
2023-05-19T16:18:11.806Z,14.43
2023-05-19T16:19:48.184Z,14.28
2023-05-19T16:21:11.981Z,14.08
2023-05-19T16:22:45.293Z,14.34
2023-05-19T16:24:30.722Z,14.59
2023-05-19T16:26:15.829Z,14.94
2023-05-19T16:27:39.443Z,13.84
2023-05-19T16:29:13.140Z,14.26
2023-05-19T16:30:43.941Z,14.58
2023-05-19T16:32:13.222Z,15.25
2023-05-19T16:33:49.359Z,14.87
2023-05-19T16:35:22.810Z,14.63
2023-05-19T16:36:56.366Z,14.45
2023-05-19T16:38:29.599Z,13.90
2023-05-19T16:40:03.522Z,14.31
2023-05-19T16:41:39.268Z,14.56
2023-05-19T16:43:01.545Z,14.43
2023-05-19T16:44:25.705Z,13.90
2023-05-19T16:45:58.994Z,13.61
2023-05-19T16:47:32.381Z,14.06
2023-05-19T16:48:54.796Z,14.93
2023-05-19T16:50:17.158Z,14.58
2023-05-19T16:51:52.745Z,13.96
2023-05-19T16:53:19.071Z,18.20
2023-05-19T16:54:52.700Z,17.03
2023-05-19T16:56:14.945Z,16.32
2023-05-19T16:57:39.286Z,15.56
2023-05-19T16:59:03.714Z,17.08
2023-05-19T17:00:27.424Z,16.79
2023-05-19T17:01:56.976Z,17.06
2023-05-19T17:03:30.950Z,15.47
2023-05-19T17:05:00.275Z,15.17
2023-05-19T17:06:26.822Z,14.40
2023-05-19T17:07:55.945Z,15.08
2023-05-19T17:09:30.618Z,15.52
2023-05-19T17:10:54.730Z,17.00
2023-05-19T17:12:18.902Z,16.44
2023-05-19T17:13:48.633Z,16.55
2023-05-19T17:15:22.069Z,15.73
2023-05-19T17:16:46.689Z,15.38
2023-05-19T17:18:20.744Z,14.70
2023-05-19T17:19:42.213Z,14.72
2023-05-19T17:21:06.483Z,14.72
2023-05-19T17:22:30.137Z,15.05
2023-05-19T17:23:52.628Z,15.67
2023-05-19T17:25:16.716Z,15.32
2023-05-19T17:26:40.699Z,15.43
2023-05-19T17:28:14.205Z,16.20
2023-05-19T17:29:37.950Z,16.61
2023-05-19T17:30:59.904Z,16.86
2023-05-19T17:32:28.221Z,16.19
2023-05-19T17:33:50.474Z,16.57
2023-05-19T17:35:22.082Z,17.56
2023-05-19T17:36:55.375Z,26.94
2023-05-19T17:38:40.589Z,21.51
2023-05-19T17:40:14.276Z,14.87
2023-05-19T17:41:35.912Z,15.48
2023-05-19T17:43:09.904Z,20.02
2023-05-19T17:44:43.260Z,18.94
2023-05-19T17:46:17.409Z,15.65
2023-05-19T17:47:53.497Z,13.88
2023-05-19T17:49:38.439Z,14.79
2023-05-19T17:51:13.068Z,14.81
2023-05-19T17:52:46.522Z,16.19
2023-05-19T17:54:19.993Z,15.75
2023-05-19T17:55:48.985Z,15.40
2023-05-19T17:57:13.793Z,16.72
2023-05-19T17:58:38.658Z,15.68
2023-05-19T18:00:12.646Z,15.62
2023-05-19T18:01:46.332Z,15.42
2023-05-19T18:03:08.157Z,15.98
2023-05-19T18:04:49.763Z,15.24
2023-05-19T18:06:23.400Z,14.96
2023-05-19T18:07:47.581Z,14.73
2023-05-19T18:09:09.765Z,15.63
2023-05-19T18:10:32.002Z,15.07
2023-05-19T18:12:03.785Z,15.15
2023-05-19T18:13:33.075Z,14.97
2023-05-19T18:15:04.646Z,15.46
2023-05-19T18:16:27.331Z,15.47
2023-05-19T18:18:16.939Z,56.92
2023-05-19T18:19:39.095Z,65.75
2023-05-19T18:21:15.066Z,46.76
2023-05-19T18:22:36.680Z,40.27
2023-05-19T18:24:03.419Z,30.16
2023-05-19T18:25:37.287Z,21.40
2023-05-19T18:26:59.554Z,23.04
2023-05-19T18:28:35.099Z,25.63
2023-05-19T18:29:59.294Z,28.92
2023-05-19T18:31:21.953Z,25.57
2023-05-19T18:33:03.365Z,23.67
2023-05-19T18:34:27.762Z,19.36
2023-05-19T18:36:01.537Z,18.97
2023-05-19T18:37:30.433Z,17.68
2023-05-19T18:39:00.097Z,15.97
2023-05-19T18:40:40.754Z,15.38
2023-05-19T18:42:02.989Z,16.24
2023-05-19T18:43:27.097Z,16.45
2023-05-19T18:44:53.127Z,17.73
2023-05-19T18:46:34.409Z,16.78
2023-05-19T18:47:58.815Z,17.34
2023-05-19T18:49:20.958Z,16.89
2023-05-19T18:51:03.674Z,16.10
2023-05-19T18:52:37.016Z,15.51
2023-05-19T18:54:06.634Z,15.90
2023-05-19T18:55:42.301Z,15.73
2023-05-19T18:57:07.122Z,15.48
2023-05-19T18:58:40.666Z,16.74
2023-05-19T19:00:04.249Z,16.41
2023-05-19T19:01:38.060Z,16.75
2023-05-19T19:03:10.249Z,16.01
2023-05-19T19:04:34.575Z,16.69
2023-05-19T19:05:56.621Z,16.26
2023-05-19T19:07:30.064Z,15.91
2023-05-19T19:09:04.087Z,16.52
2023-05-19T19:10:28.306Z,17.08
2023-05-19T19:11:50.248Z,18.28
2023-05-19T19:13:14.506Z,18.16
2023-05-19T19:14:40.808Z,17.67
2023-05-19T19:16:17.603Z,17.60
2023-05-19T19:17:42.037Z,17.60
2023-05-19T19:19:04.191Z,16.87
2023-05-19T19:20:37.442Z,16.58
2023-05-19T19:22:01.452Z,16.39
2023-05-19T19:23:23.538Z,16.31
2023-05-19T19:24:55.621Z,16.76
2023-05-19T19:26:29.564Z,16.48
2023-05-19T19:27:53.845Z,16.82
2023-05-19T19:29:30.101Z,16.99
2023-05-19T19:30:54.548Z,16.84
2023-05-19T19:32:40.743Z,16.40
2023-05-19T19:34:20.866Z,15.72
2023-05-19T19:35:42.185Z,16.85
2023-05-19T19:37:07.106Z,17.38
2023-05-19T19:38:31.193Z,17.26
2023-05-19T19:40:04.958Z,16.90
2023-05-19T19:41:29.672Z,16.77
2023-05-19T19:43:06.156Z,17.21
2023-05-19T19:44:49.885Z,15.87
2023-05-19T19:46:14.169Z,16.51
2023-05-19T19:47:36.070Z,16.83
2023-05-19T19:49:09.698Z,17.80
2023-05-19T19:51:02.935Z,18.42
2023-05-19T19:52:36.749Z,17.51
2023-05-19T19:54:08.336Z,17.16
2023-05-19T19:55:33.186Z,17.74
2023-05-19T19:57:18.346Z,15.99
2023-05-19T19:58:42.161Z,16.46
2023-05-19T20:00:08.330Z,16.35
2023-05-19T20:01:41.816Z,16.11
2023-05-19T20:03:13.656Z,16.57
2023-05-19T20:04:37.712Z,16.90
2023-05-19T20:06:08.073Z,17.35
2023-05-19T20:07:29.923Z,16.68
2023-05-19T20:09:15.494Z,16.77
2023-05-19T20:10:36.942Z,16.31
2023-05-19T20:12:10.564Z,17.13
2023-05-19T20:13:32.904Z,17.21
2023-05-19T20:14:57.704Z,17.56
2023-05-19T20:16:37.471Z,17.28
2023-05-19T20:18:11.143Z,18.40
2023-05-19T20:19:42.518Z,20.68
2023-05-19T20:21:04.862Z,22.51
2023-05-19T20:22:29.114Z,20.22
2023-05-19T20:24:02.735Z,18.41
2023-05-19T20:25:58.533Z,19.00
2023-05-19T20:27:27.769Z,18.48
2023-05-19T20:28:49.326Z,18.56
2023-05-19T20:30:22.704Z,18.68
2023-05-19T20:32:04.173Z,18.58
2023-05-19T20:33:28.153Z,18.61
2023-05-19T20:34:57.788Z,18.48